sensor_id;sensor_type;location;lat;lon;timestamp;P1;durP1;ratioP1;P2;durP2;ratioP2
19595;SDS011;9945;46.010;8.946;2022-11-20T00:01:04;0.67;;;0.67;;
19595;SDS011;9945;46.010;8.946;2022-11-20T00:03:32;0.77;;;0.43;;
19595;SDS011;9945;46.010;8.946;2022-11-20T00:06:00;0.30;;;0.30;;
19595;SDS011;9945;46.010;8.946;2022-11-20T00:08:27;0.73;;;0.30;;
19595;SDS011;9945;46.010;8.946;2022-11-20T00:10:54;0.30;;;0.30;;
19595;SDS011;9945;46.010;8.946;2022-11-20T00:13:21;0.30;;;0.30;;
19595;SDS011;9945;46.010;8.946;2022-11-20T00:15:48;0.20;;;0.20;;
19595;SDS011;9945;46.010;8.946;2022-11-20T00:18:22;0.33;;;0.33;;
19595;SDS011;9945;46.010;8.946;2022-11-20T00:20:49;0.30;;;0.30;;
19595;SDS011;9945;46.010;8.946;2022-11-20T00:23:17;0.40;;;0.40;;
19595;SDS011;9945;46.010;8.946;2022-11-20T00:25:44;0.40;;;0.40;;
19595;SDS011;9945;46.010;8.946;2022-11-20T00:28:11;0.30;;;0.30;;
19595;SDS011;9945;46.010;8.946;2022-11-20T00:30:38;0.40;;;0.40;;
19595;SDS011;9945;46.010;8.946;2022-11-20T00:33:05;0.93;;;0.40;;
19595;SDS011;9945;46.010;8.946;2022-11-20T00:35:32;0.40;;;0.40;;
19595;SDS011;9945;46.010;8.946;2022-11-20T00:37:58;0.50;;;0.50;;
19595;SDS011;9945;46.010;8.946;2022-11-20T00:40:27;0.30;;;0.30;;
19595;SDS011;9945;46.010;8.946;2022-11-20T00:42:53;0.33;;;0.33;;
19595;SDS011;9945;46.010;8.946;2022-11-20T00:45:20;0.40;;;0.40;;
19595;SDS011;9945;46.010;8.946;2022-11-20T00:47:47;0.27;;;0.27;;
19595;SDS011;9945;46.010;8.946;2022-11-20T00:50:14;0.83;;;0.30;;
19595;SDS011;9945;46.010;8.946;2022-11-20T00:52:41;0.90;;;0.90;;
19595;SDS011;9945;46.010;8.946;2022-11-20T00:55:08;1.70;;;1.60;;
19595;SDS011;9945;46.010;8.946;2022-11-20T00:57:36;1.90;;;1.80;;
19595;SDS011;9945;46.010;8.946;2022-11-20T01:00:04;1.50;;;1.40;;
19595;SDS011;9945;46.010;8.946;2022-11-20T01:02:31;2.87;;;1.60;;
19595;SDS011;9945;46.010;8.946;2022-11-20T01:04:58;1.80;;;1.70;;
19595;SDS011;9945;46.010;8.946;2022-11-20T01:07:25;1.57;;;1.47;;
19595;SDS011;9945;46.010;8.946;2022-11-20T01:09:52;1.60;;;1.50;;
19595;SDS011;9945;46.010;8.946;2022-11-20T01:12:19;1.70;;;1.60;;
19595;SDS011;9945;46.010;8.946;2022-11-20T01:14:48;1.40;;;1.30;;
19595;SDS011;9945;46.010;8.946;2022-11-20T01:17:14;1.53;;;1.43;;
19595;SDS011;9945;46.010;8.946;2022-11-20T01:19:41;1.40;;;1.30;;
19595;SDS011;9945;46.010;8.946;2022-11-20T01:22:09;2.93;;;1.63;;
19595;SDS011;9945;46.010;8.946;2022-11-20T01:24:36;2.00;;;1.90;;
19595;SDS011;9945;46.010;8.946;2022-11-20T01:27:02;2.53;;;1.57;;
19595;SDS011;9945;46.010;8.946;2022-11-20T01:29:29;1.90;;;1.80;;
19595;SDS011;9945;46.010;8.946;2022-11-20T01:31:57;2.13;;;1.93;;
19595;SDS011;9945;46.010;8.946;2022-11-20T01:34:24;1.97;;;1.80;;
19595;SDS011;9945;46.010;8.946;2022-11-20T01:36:51;1.77;;;1.67;;
19595;SDS011;9945;46.010;8.946;2022-11-20T01:39:19;2.17;;;1.97;;
19595;SDS011;9945;46.010;8.946;2022-11-20T01:41:48;2.27;;;1.57;;
19595;SDS011;9945;46.010;8.946;2022-11-20T01:44:45;1.30;;;1.20;;
19595;SDS011;9945;46.010;8.946;2022-11-20T01:47:17;1.60;;;1.50;;
19595;SDS011;9945;46.010;8.946;2022-11-20T01:49:50;2.43;;;1.70;;
19595;SDS011;9945;46.010;8.946;2022-11-20T01:52:21;3.90;;;1.60;;
19595;SDS011;9945;46.010;8.946;2022-11-20T01:54:53;1.90;;;1.80;;
19595;SDS011;9945;46.010;8.946;2022-11-20T01:57:23;1.53;;;1.40;;
19595;SDS011;9945;46.010;8.946;2022-11-20T01:59:55;1.73;;;1.63;;
19595;SDS011;9945;46.010;8.946;2022-11-20T02:02:27;2.63;;;1.83;;
19595;SDS011;9945;46.010;8.946;2022-11-20T02:04:55;1.90;;;1.70;;
19595;SDS011;9945;46.010;8.946;2022-11-20T02:07:26;1.57;;;1.47;;
19595;SDS011;9945;46.010;8.946;2022-11-20T02:09:54;1.50;;;1.40;;
19595;SDS011;9945;46.010;8.946;2022-11-20T02:12:21;1.50;;;1.40;;
19595;SDS011;9945;46.010;8.946;2022-11-20T02:15:05;1.67;;;1.57;;
19595;SDS011;9945;46.010;8.946;2022-11-20T02:17:34;1.50;;;1.40;;
19595;SDS011;9945;46.010;8.946;2022-11-20T02:20:01;1.60;;;1.40;;
19595;SDS011;9945;46.010;8.946;2022-11-20T02:22:30;4.90;;;1.57;;
19595;SDS011;9945;46.010;8.946;2022-11-20T02:25:05;1.80;;;1.70;;
19595;SDS011;9945;46.010;8.946;2022-11-20T02:27:34;1.90;;;1.77;;
19595;SDS011;9945;46.010;8.946;2022-11-20T02:30:01;1.60;;;1.50;;
19595;SDS011;9945;46.010;8.946;2022-11-20T02:32:33;1.50;;;1.40;;
19595;SDS011;9945;46.010;8.946;2022-11-20T02:35:06;2.03;;;1.50;;
19595;SDS011;9945;46.010;8.946;2022-11-20T02:37:35;1.73;;;1.63;;
19595;SDS011;9945;46.010;8.946;2022-11-20T02:40:04;1.07;;;1.07;;
19595;SDS011;9945;46.010;8.946;2022-11-20T02:42:33;1.73;;;1.47;;
19595;SDS011;9945;46.010;8.946;2022-11-20T02:45:00;1.30;;;1.20;;
19595;SDS011;9945;46.010;8.946;2022-11-20T02:47:27;1.30;;;1.30;;
19595;SDS011;9945;46.010;8.946;2022-11-20T02:49:54;1.60;;;1.50;;
19595;SDS011;9945;46.010;8.946;2022-11-20T02:52:21;1.43;;;1.37;;
19595;SDS011;9945;46.010;8.946;2022-11-20T02:54:48;1.27;;;1.17;;
19595;SDS011;9945;46.010;8.946;2022-11-20T02:57:16;2.40;;;1.20;;
19595;SDS011;9945;46.010;8.946;2022-11-20T02:59:43;1.30;;;1.20;;
19595;SDS011;9945;46.010;8.946;2022-11-20T03:02:10;1.40;;;1.30;;
19595;SDS011;9945;46.010;8.946;2022-11-20T03:04:36;2.50;;;1.23;;
19595;SDS011;9945;46.010;8.946;2022-11-20T03:07:03;1.40;;;1.30;;
19595;SDS011;9945;46.010;8.946;2022-11-20T03:09:30;1.60;;;1.50;;
19595;SDS011;9945;46.010;8.946;2022-11-20T03:11:57;1.43;;;1.30;;
19595;SDS011;9945;46.010;8.946;2022-11-20T03:14:25;1.37;;;1.27;;
19595;SDS011;9945;46.010;8.946;2022-11-20T03:16:52;1.27;;;1.17;;
19595;SDS011;9945;46.010;8.946;2022-11-20T03:19:19;1.60;;;1.50;;
19595;SDS011;9945;46.010;8.946;2022-11-20T03:21:46;1.67;;;1.23;;
19595;SDS011;9945;46.010;8.946;2022-11-20T03:24:13;1.10;;;0.90;;
19595;SDS011;9945;46.010;8.946;2022-11-20T03:26:40;1.40;;;1.30;;
19595;SDS011;9945;46.010;8.946;2022-11-20T03:29:08;1.00;;;1.00;;
19595;SDS011;9945;46.010;8.946;2022-11-20T03:31:36;1.20;;;1.10;;
19595;SDS011;9945;46.010;8.946;2022-11-20T03:34:05;1.10;;;1.10;;
19595;SDS011;9945;46.010;8.946;2022-11-20T03:36:33;1.27;;;1.27;;
19595;SDS011;9945;46.010;8.946;2022-11-20T03:39:01;1.20;;;1.20;;
19595;SDS011;9945;46.010;8.946;2022-11-20T03:41:28;1.33;;;1.30;;
19595;SDS011;9945;46.010;8.946;2022-11-20T03:43:57;1.30;;;1.20;;
19595;SDS011;9945;46.010;8.946;2022-11-20T03:46:25;1.20;;;1.00;;
19595;SDS011;9945;46.010;8.946;2022-11-20T03:48:54;1.10;;;1.10;;
19595;SDS011;9945;46.010;8.946;2022-11-20T03:51:22;2.97;;;1.47;;
19595;SDS011;9945;46.010;8.946;2022-11-20T03:53:52;1.00;;;1.00;;
19595;SDS011;9945;46.010;8.946;2022-11-20T03:56:21;1.27;;;1.10;;
19595;SDS011;9945;46.010;8.946;2022-11-20T03:58:50;1.20;;;1.20;;
19595;SDS011;9945;46.010;8.946;2022-11-20T04:01:18;1.10;;;1.10;;
19595;SDS011;9945;46.010;8.946;2022-11-20T04:03:46;1.40;;;1.30;;
19595;SDS011;9945;46.010;8.946;2022-11-20T04:06:16;1.57;;;0.83;;
19595;SDS011;9945;46.010;8.946;2022-11-20T04:08:45;1.07;;;1.07;;
19595;SDS011;9945;46.010;8.946;2022-11-20T04:11:13;1.50;;;1.40;;
19595;SDS011;9945;46.010;8.946;2022-11-20T04:13:41;0.80;;;0.80;;
19595;SDS011;9945;46.010;8.946;2022-11-20T04:16:09;1.00;;;1.00;;
19595;SDS011;9945;46.010;8.946;2022-11-20T04:18:36;0.87;;;0.87;;
19595;SDS011;9945;46.010;8.946;2022-11-20T04:21:04;1.10;;;1.00;;
19595;SDS011;9945;46.010;8.946;2022-11-20T04:23:33;1.07;;;1.07;;
19595;SDS011;9945;46.010;8.946;2022-11-20T04:26:00;1.40;;;1.30;;
19595;SDS011;9945;46.010;8.946;2022-11-20T04:28:28;1.20;;;1.10;;
19595;SDS011;9945;46.010;8.946;2022-11-20T04:31:00;1.13;;;1.10;;
19595;SDS011;9945;46.010;8.946;2022-11-20T04:33:28;0.87;;;0.87;;
19595;SDS011;9945;46.010;8.946;2022-11-20T04:35:55;1.47;;;1.37;;
19595;SDS011;9945;46.010;8.946;2022-11-20T04:38:26;1.10;;;1.10;;
19595;SDS011;9945;46.010;8.946;2022-11-20T04:40:57;0.80;;;0.80;;
19595;SDS011;9945;46.010;8.946;2022-11-20T04:43:24;1.17;;;1.17;;
19595;SDS011;9945;46.010;8.946;2022-11-20T04:45:51;1.03;;;0.93;;
19595;SDS011;9945;46.010;8.946;2022-11-20T04:48:18;1.23;;;1.13;;
19595;SDS011;9945;46.010;8.946;2022-11-20T04:50:45;0.90;;;0.90;;
19595;SDS011;9945;46.010;8.946;2022-11-20T04:53:12;1.10;;;1.00;;
19595;SDS011;9945;46.010;8.946;2022-11-20T04:55:39;1.07;;;1.07;;
19595;SDS011;9945;46.010;8.946;2022-11-20T04:58:07;1.00;;;1.00;;
19595;SDS011;9945;46.010;8.946;2022-11-20T05:00:34;0.83;;;0.80;;
19595;SDS011;9945;46.010;8.946;2022-11-20T05:03:01;1.50;;;0.90;;
19595;SDS011;9945;46.010;8.946;2022-11-20T05:05:28;0.60;;;0.60;;
19595;SDS011;9945;46.010;8.946;2022-11-20T05:07:55;0.90;;;0.90;;
19595;SDS011;9945;46.010;8.946;2022-11-20T05:10:23;0.73;;;0.73;;
19595;SDS011;9945;46.010;8.946;2022-11-20T05:12:50;0.97;;;0.97;;
19595;SDS011;9945;46.010;8.946;2022-11-20T05:15:18;1.20;;;1.10;;
19595;SDS011;9945;46.010;8.946;2022-11-20T05:17:46;0.60;;;0.60;;
19595;SDS011;9945;46.010;8.946;2022-11-20T05:20:14;0.90;;;0.90;;
19595;SDS011;9945;46.010;8.946;2022-11-20T05:22:41;0.90;;;0.90;;
19595;SDS011;9945;46.010;8.946;2022-11-20T05:25:08;0.80;;;0.80;;
19595;SDS011;9945;46.010;8.946;2022-11-20T05:27:35;1.20;;;1.07;;
19595;SDS011;9945;46.010;8.946;2022-11-20T05:30:03;1.13;;;1.00;;
19595;SDS011;9945;46.010;8.946;2022-11-20T05:32:32;0.70;;;0.70;;
19595;SDS011;9945;46.010;8.946;2022-11-20T05:34:58;0.70;;;0.70;;
19595;SDS011;9945;46.010;8.946;2022-11-20T05:37:25;0.90;;;0.80;;
19595;SDS011;9945;46.010;8.946;2022-11-20T05:39:52;1.27;;;0.90;;
19595;SDS011;9945;46.010;8.946;2022-11-20T05:42:19;0.70;;;0.70;;
19595;SDS011;9945;46.010;8.946;2022-11-20T05:44:58;0.83;;;0.83;;
19595;SDS011;9945;46.010;8.946;2022-11-20T05:47:26;0.70;;;0.70;;
19595;SDS011;9945;46.010;8.946;2022-11-20T05:49:55;1.13;;;1.03;;
19595;SDS011;9945;46.010;8.946;2022-11-20T05:52:22;0.80;;;0.80;;
19595;SDS011;9945;46.010;8.946;2022-11-20T05:54:49;0.70;;;0.70;;
19595;SDS011;9945;46.010;8.946;2022-11-20T05:57:16;0.90;;;0.90;;
19595;SDS011;9945;46.010;8.946;2022-11-20T05:59:43;1.17;;;0.90;;
19595;SDS011;9945;46.010;8.946;2022-11-20T06:02:09;0.60;;;0.60;;
19595;SDS011;9945;46.010;8.946;2022-11-20T06:04:36;0.90;;;0.80;;
19595;SDS011;9945;46.010;8.946;2022-11-20T06:07:05;0.90;;;0.90;;
19595;SDS011;9945;46.010;8.946;2022-11-20T06:09:32;0.80;;;0.80;;
19595;SDS011;9945;46.010;8.946;2022-11-20T06:12:00;0.83;;;0.83;;
19595;SDS011;9945;46.010;8.946;2022-11-20T06:14:26;0.83;;;0.83;;
19595;SDS011;9945;46.010;8.946;2022-11-20T06:16:53;1.00;;;0.57;;
19595;SDS011;9945;46.010;8.946;2022-11-20T06:19:23;0.83;;;0.83;;
19595;SDS011;9945;46.010;8.946;2022-11-20T06:21:49;0.70;;;0.70;;
19595;SDS011;9945;46.010;8.946;2022-11-20T06:24:18;0.90;;;0.90;;
19595;SDS011;9945;46.010;8.946;2022-11-20T06:26:44;0.90;;;0.90;;
19595;SDS011;9945;46.010;8.946;2022-11-20T06:29:11;0.80;;;0.80;;
19595;SDS011;9945;46.010;8.946;2022-11-20T06:31:38;0.73;;;0.73;;
19595;SDS011;9945;46.010;8.946;2022-11-20T06:34:07;0.90;;;0.90;;
19595;SDS011;9945;46.010;8.946;2022-11-20T06:36:34;0.80;;;0.80;;
19595;SDS011;9945;46.010;8.946;2022-11-20T06:39:01;0.80;;;0.80;;
19595;SDS011;9945;46.010;8.946;2022-11-20T06:41:30;0.83;;;0.83;;
19595;SDS011;9945;46.010;8.946;2022-11-20T06:43:57;1.93;;;0.80;;
19595;SDS011;9945;46.010;8.946;2022-11-20T06:46:24;1.20;;;0.60;;
19595;SDS011;9945;46.010;8.946;2022-11-20T06:48:50;2.40;;;0.80;;
19595;SDS011;9945;46.010;8.946;2022-11-20T06:51:18;0.80;;;0.80;;
19595;SDS011;9945;46.010;8.946;2022-11-20T06:53:44;0.80;;;0.80;;
19595;SDS011;9945;46.010;8.946;2022-11-20T06:56:11;0.87;;;0.80;;
19595;SDS011;9945;46.010;8.946;2022-11-20T06:58:39;1.13;;;1.00;;
19595;SDS011;9945;46.010;8.946;2022-11-20T07:01:07;1.03;;;1.03;;
19595;SDS011;9945;46.010;8.946;2022-11-20T07:03:36;0.90;;;0.90;;
19595;SDS011;9945;46.010;8.946;2022-11-20T07:06:03;1.30;;;1.20;;
19595;SDS011;9945;46.010;8.946;2022-11-20T07:08:31;0.70;;;0.70;;
19595;SDS011;9945;46.010;8.946;2022-11-20T07:10:59;0.80;;;0.80;;
19595;SDS011;9945;46.010;8.946;2022-11-20T07:13:27;0.93;;;0.93;;
19595;SDS011;9945;46.010;8.946;2022-11-20T07:15:58;1.70;;;0.80;;
19595;SDS011;9945;46.010;8.946;2022-11-20T07:18:26;0.73;;;0.73;;
19595;SDS011;9945;46.010;8.946;2022-11-20T07:20:53;1.27;;;1.00;;
19595;SDS011;9945;46.010;8.946;2022-11-20T07:23:20;0.70;;;0.70;;
19595;SDS011;9945;46.010;8.946;2022-11-20T07:25:47;2.60;;;0.70;;
19595;SDS011;9945;46.010;8.946;2022-11-20T07:28:13;0.60;;;0.60;;
19595;SDS011;9945;46.010;8.946;2022-11-20T07:30:40;0.70;;;0.60;;
19595;SDS011;9945;46.010;8.946;2022-11-20T07:33:17;0.67;;;0.67;;
19595;SDS011;9945;46.010;8.946;2022-11-20T07:35:44;1.40;;;1.30;;
19595;SDS011;9945;46.010;8.946;2022-11-20T07:38:11;0.90;;;0.90;;
19595;SDS011;9945;46.010;8.946;2022-11-20T07:40:38;0.97;;;0.77;;
19595;SDS011;9945;46.010;8.946;2022-11-20T07:43:05;0.90;;;0.90;;
19595;SDS011;9945;46.010;8.946;2022-11-20T07:45:32;1.03;;;0.90;;
19595;SDS011;9945;46.010;8.946;2022-11-20T07:47:59;0.87;;;0.87;;
19595;SDS011;9945;46.010;8.946;2022-11-20T07:50:27;0.67;;;0.67;;
19595;SDS011;9945;46.010;8.946;2022-11-20T07:52:59;1.20;;;1.10;;
19595;SDS011;9945;46.010;8.946;2022-11-20T07:55:27;0.90;;;0.90;;
19595;SDS011;9945;46.010;8.946;2022-11-20T07:57:54;0.80;;;0.80;;
19595;SDS011;9945;46.010;8.946;2022-11-20T08:00:21;1.97;;;1.30;;
19595;SDS011;9945;46.010;8.946;2022-11-20T08:02:49;2.13;;;1.00;;
19595;SDS011;9945;46.010;8.946;2022-11-20T08:05:15;1.00;;;1.00;;
19595;SDS011;9945;46.010;8.946;2022-11-20T08:07:44;0.90;;;0.90;;
19595;SDS011;9945;46.010;8.946;2022-11-20T08:10:12;1.17;;;1.07;;
19595;SDS011;9945;46.010;8.946;2022-11-20T08:12:43;1.20;;;1.03;;
19595;SDS011;9945;46.010;8.946;2022-11-20T08:15:28;1.10;;;1.03;;
19595;SDS011;9945;46.010;8.946;2022-11-20T08:17:59;1.77;;;1.10;;
19595;SDS011;9945;46.010;8.946;2022-11-20T08:20:27;2.80;;;1.00;;
19595;SDS011;9945;46.010;8.946;2022-11-20T08:22:58;1.20;;;1.13;;
19595;SDS011;9945;46.010;8.946;2022-11-20T08:25:26;0.87;;;0.87;;
19595;SDS011;9945;46.010;8.946;2022-11-20T08:27:53;1.10;;;1.10;;
19595;SDS011;9945;46.010;8.946;2022-11-20T08:30:22;1.00;;;1.00;;
19595;SDS011;9945;46.010;8.946;2022-11-20T08:32:49;1.17;;;1.10;;
19595;SDS011;9945;46.010;8.946;2022-11-20T08:35:16;1.77;;;1.20;;
19595;SDS011;9945;46.010;8.946;2022-11-20T08:37:45;1.70;;;0.83;;
19595;SDS011;9945;46.010;8.946;2022-11-20T08:40:14;1.17;;;1.07;;
19595;SDS011;9945;46.010;8.946;2022-11-20T08:42:50;1.00;;;1.00;;
19595;SDS011;9945;46.010;8.946;2022-11-20T08:45:18;0.90;;;0.90;;
19595;SDS011;9945;46.010;8.946;2022-11-20T08:47:45;3.80;;;1.13;;
19595;SDS011;9945;46.010;8.946;2022-11-20T08:50:13;1.00;;;0.98;;
19595;SDS011;9945;46.010;8.946;2022-11-20T08:52:41;0.90;;;0.90;;
19595;SDS011;9945;46.010;8.946;2022-11-20T08:55:08;1.00;;;0.90;;
19595;SDS011;9945;46.010;8.946;2022-11-20T08:57:37;0.90;;;0.90;;
19595;SDS011;9945;46.010;8.946;2022-11-20T09:00:05;1.00;;;1.00;;
19595;SDS011;9945;46.010;8.946;2022-11-20T09:02:33;1.08;;;1.08;;
19595;SDS011;9945;46.010;8.946;2022-11-20T09:05:01;1.23;;;1.23;;
19595;SDS011;9945;46.010;8.946;2022-11-20T09:07:28;1.10;;;1.10;;
19595;SDS011;9945;46.010;8.946;2022-11-20T09:09:56;1.20;;;1.20;;
19595;SDS011;9945;46.010;8.946;2022-11-20T09:12:23;1.48;;;1.38;;
19595;SDS011;9945;46.010;8.946;2022-11-20T09:14:51;1.40;;;1.20;;
19595;SDS011;9945;46.010;8.946;2022-11-20T09:17:18;1.45;;;1.13;;
19595;SDS011;9945;46.010;8.946;2022-11-20T09:19:45;1.48;;;1.30;;
19595;SDS011;9945;46.010;8.946;2022-11-20T09:22:13;1.05;;;1.05;;
19595;SDS011;9945;46.010;8.946;2022-11-20T09:24:39;1.40;;;1.40;;
19595;SDS011;9945;46.010;8.946;2022-11-20T09:27:07;1.25;;;1.15;;
19595;SDS011;9945;46.010;8.946;2022-11-20T09:29:34;1.33;;;1.30;;
19595;SDS011;9945;46.010;8.946;2022-11-20T09:32:02;1.88;;;1.10;;
19595;SDS011;9945;46.010;8.946;2022-11-20T09:34:30;1.45;;;1.35;;
19595;SDS011;9945;46.010;8.946;2022-11-20T09:36:57;1.73;;;1.60;;
19595;SDS011;9945;46.010;8.946;2022-11-20T09:39:24;1.65;;;1.55;;
19595;SDS011;9945;46.010;8.946;2022-11-20T09:42:07;1.80;;;1.70;;
19595;SDS011;9945;46.010;8.946;2022-11-20T09:44:57;1.67;;;1.58;;
19595;SDS011;9945;46.010;8.946;2022-11-20T09:47:40;1.95;;;1.40;;
19595;SDS011;9945;46.010;8.946;2022-11-20T09:50:22;1.35;;;1.25;;
19595;SDS011;9945;46.010;8.946;2022-11-20T09:52:57;1.80;;;1.38;;
19595;SDS011;9945;46.010;8.946;2022-11-20T09:55:33;1.55;;;1.45;;
19595;SDS011;9945;46.010;8.946;2022-11-20T09:58:02;1.55;;;1.45;;
19595;SDS011;9945;46.010;8.946;2022-11-20T10:00:33;1.30;;;1.30;;
19595;SDS011;9945;46.010;8.946;2022-11-20T10:03:03;2.83;;;1.10;;
19595;SDS011;9945;46.010;8.946;2022-11-20T10:05:40;1.75;;;1.50;;
19595;SDS011;9945;46.010;8.946;2022-11-20T10:08:13;1.77;;;1.67;;
19595;SDS011;9945;46.010;8.946;2022-11-20T10:10:46;3.20;;;1.60;;
19595;SDS011;9945;46.010;8.946;2022-11-20T10:13:21;1.27;;;1.27;;
19595;SDS011;9945;46.010;8.946;2022-11-20T10:16:02;2.15;;;2.05;;
19595;SDS011;9945;46.010;8.946;2022-11-20T10:18:51;2.55;;;2.35;;
19595;SDS011;9945;46.010;8.946;2022-11-20T10:21:30;2.10;;;1.48;;
19595;SDS011;9945;46.010;8.946;2022-11-20T10:24:24;1.23;;;1.23;;
19595;SDS011;9945;46.010;8.946;2022-11-20T10:27:17;1.23;;;1.13;;
19595;SDS011;9945;46.010;8.946;2022-11-20T10:29:59;1.20;;;1.20;;
19595;SDS011;9945;46.010;8.946;2022-11-20T10:32:30;1.10;;;1.10;;
19595;SDS011;9945;46.010;8.946;2022-11-20T10:35:06;1.10;;;1.10;;
19595;SDS011;9945;46.010;8.946;2022-11-20T10:37:43;0.80;;;0.80;;
19595;SDS011;9945;46.010;8.946;2022-11-20T10:40:18;0.82;;;0.82;;
19595;SDS011;9945;46.010;8.946;2022-11-20T10:42:50;0.50;;;0.50;;
19595;SDS011;9945;46.010;8.946;2022-11-20T10:45:26;1.23;;;0.40;;
19595;SDS011;9945;46.010;8.946;2022-11-20T10:48:04;0.32;;;0.32;;
19595;SDS011;9945;46.010;8.946;2022-11-20T10:50:40;0.50;;;0.50;;
19595;SDS011;9945;46.010;8.946;2022-11-20T10:53:20;1.20;;;1.08;;
19595;SDS011;9945;46.010;8.946;2022-11-20T10:55:57;1.90;;;1.80;;
19595;SDS011;9945;46.010;8.946;2022-11-20T10:58:33;1.83;;;1.73;;
19595;SDS011;9945;46.010;8.946;2022-11-20T11:03:41;2.20;;;2.10;;
19595;SDS011;9945;46.010;8.946;2022-11-20T11:06:13;2.08;;;1.80;;
19595;SDS011;9945;46.010;8.946;2022-11-20T11:08:45;1.20;;;1.20;;
19595;SDS011;9945;46.010;8.946;2022-11-20T11:11:20;0.90;;;0.90;;
19595;SDS011;9945;46.010;8.946;2022-11-20T11:13:49;0.50;;;0.50;;
19595;SDS011;9945;46.010;8.946;2022-11-20T11:16:19;0.60;;;0.60;;
19595;SDS011;9945;46.010;8.946;2022-11-20T11:18:48;0.50;;;0.50;;
19595;SDS011;9945;46.010;8.946;2022-11-20T11:21:21;1.60;;;1.60;;
19595;SDS011;9945;46.010;8.946;2022-11-20T11:23:57;2.03;;;1.92;;
19595;SDS011;9945;46.010;8.946;2022-11-20T11:26:25;1.55;;;1.55;;
19595;SDS011;9945;46.010;8.946;2022-11-20T11:28:53;1.75;;;1.65;;
19595;SDS011;9945;46.010;8.946;2022-11-20T11:31:22;1.40;;;1.40;;
19595;SDS011;9945;46.010;8.946;2022-11-20T11:33:50;1.42;;;1.35;;
19595;SDS011;9945;46.010;8.946;2022-11-20T11:36:17;0.82;;;0.82;;
19595;SDS011;9945;46.010;8.946;2022-11-20T11:38:50;0.50;;;0.50;;
19595;SDS011;9945;46.010;8.946;2022-11-20T11:41:19;0.40;;;0.40;;
19595;SDS011;9945;46.010;8.946;2022-11-20T11:43:52;0.40;;;0.40;;
19595;SDS011;9945;46.010;8.946;2022-11-20T11:46:39;1.58;;;1.48;;
19595;SDS011;9945;46.010;8.946;2022-11-20T11:49:16;1.60;;;1.50;;
19595;SDS011;9945;46.010;8.946;2022-11-20T11:51:54;1.70;;;1.60;;
19595;SDS011;9945;46.010;8.946;2022-11-20T11:54:30;1.60;;;1.50;;
19595;SDS011;9945;46.010;8.946;2022-11-20T11:57:05;1.40;;;1.40;;
19595;SDS011;9945;46.010;8.946;2022-11-20T11:59:43;1.25;;;1.20;;
19595;SDS011;9945;46.010;8.946;2022-11-20T12:02:24;0.98;;;0.98;;
19595;SDS011;9945;46.010;8.946;2022-11-20T12:04:59;0.80;;;0.80;;
19595;SDS011;9945;46.010;8.946;2022-11-20T12:07:38;1.05;;;1.05;;
19595;SDS011;9945;46.010;8.946;2022-11-20T12:10:12;1.02;;;1.02;;
19595;SDS011;9945;46.010;8.946;2022-11-20T12:12:46;2.30;;;1.20;;
19595;SDS011;9945;46.010;8.946;2022-11-20T12:15:22;1.30;;;1.30;;
19595;SDS011;9945;46.010;8.946;2022-11-20T12:17:52;1.45;;;1.38;;
19595;SDS011;9945;46.010;8.946;2022-11-20T12:20:19;0.80;;;0.80;;
19595;SDS011;9945;46.010;8.946;2022-11-20T12:22:53;0.77;;;0.77;;
19595;SDS011;9945;46.010;8.946;2022-11-20T12:25:27;1.00;;;1.00;;
19595;SDS011;9945;46.010;8.946;2022-11-20T12:28:02;0.70;;;0.70;;
19595;SDS011;9945;46.010;8.946;2022-11-20T12:30:47;0.95;;;0.95;;
19595;SDS011;9945;46.010;8.946;2022-11-20T12:33:30;0.65;;;0.65;;
19595;SDS011;9945;46.010;8.946;2022-11-20T12:36:15;0.68;;;0.68;;
19595;SDS011;9945;46.010;8.946;2022-11-20T12:39:02;0.50;;;0.50;;
19595;SDS011;9945;46.010;8.946;2022-11-20T12:41:47;0.88;;;0.88;;
19595;SDS011;9945;46.010;8.946;2022-11-20T12:44:44;0.95;;;0.95;;
19595;SDS011;9945;46.010;8.946;2022-11-20T12:47:40;1.63;;;1.40;;
19595;SDS011;9945;46.010;8.946;2022-11-20T12:50:23;1.95;;;1.45;;
19595;SDS011;9945;46.010;8.946;2022-11-20T12:53:00;1.42;;;1.27;;
19595;SDS011;9945;46.010;8.946;2022-11-20T12:55:38;0.63;;;0.63;;
19595;SDS011;9945;46.010;8.946;2022-11-20T12:58:17;1.58;;;0.70;;
19595;SDS011;9945;46.010;8.946;2022-11-20T13:00:48;0.28;;;0.28;;
19595;SDS011;9945;46.010;8.946;2022-11-20T13:03:38;0.40;;;0.40;;
19595;SDS011;9945;46.010;8.946;2022-11-20T13:06:11;0.50;;;0.50;;
19595;SDS011;9945;46.010;8.946;2022-11-20T13:08:42;0.50;;;0.50;;
19595;SDS011;9945;46.010;8.946;2022-11-20T13:11:16;0.40;;;0.40;;
19595;SDS011;9945;46.010;8.946;2022-11-20T13:14:00;0.40;;;0.40;;
19595;SDS011;9945;46.010;8.946;2022-11-20T13:16:41;0.80;;;0.80;;
19595;SDS011;9945;46.010;8.946;2022-11-20T13:19:17;1.60;;;0.70;;
19595;SDS011;9945;46.010;8.946;2022-11-20T13:21:45;0.50;;;0.50;;
19595;SDS011;9945;46.010;8.946;2022-11-20T13:24:21;0.70;;;0.70;;
19595;SDS011;9945;46.010;8.946;2022-11-20T13:27:04;0.60;;;0.60;;
19595;SDS011;9945;46.010;8.946;2022-11-20T13:29:44;0.70;;;0.70;;
19595;SDS011;9945;46.010;8.946;2022-11-20T13:32:13;0.60;;;0.60;;
19595;SDS011;9945;46.010;8.946;2022-11-20T13:34:50;0.85;;;0.70;;
19595;SDS011;9945;46.010;8.946;2022-11-20T13:37:24;1.65;;;0.70;;
19595;SDS011;9945;46.010;8.946;2022-11-20T13:40:04;0.93;;;0.70;;
19595;SDS011;9945;46.010;8.946;2022-11-20T13:42:34;0.68;;;0.68;;
19595;SDS011;9945;46.010;8.946;2022-11-20T13:45:08;0.90;;;0.90;;
19595;SDS011;9945;46.010;8.946;2022-11-20T13:47:36;1.02;;;0.88;;
19595;SDS011;9945;46.010;8.946;2022-11-20T13:50:04;0.50;;;0.50;;
19595;SDS011;9945;46.010;8.946;2022-11-20T13:52:38;0.77;;;0.77;;
19595;SDS011;9945;46.010;8.946;2022-11-20T13:55:15;0.52;;;0.52;;
19595;SDS011;9945;46.010;8.946;2022-11-20T13:57:59;0.50;;;0.50;;
19595;SDS011;9945;46.010;8.946;2022-11-20T14:00:45;0.60;;;0.60;;
19595;SDS011;9945;46.010;8.946;2022-11-20T14:03:18;1.00;;;1.00;;
19595;SDS011;9945;46.010;8.946;2022-11-20T14:05:50;0.80;;;0.80;;
19595;SDS011;9945;46.010;8.946;2022-11-20T14:08:27;0.65;;;0.65;;
19595;SDS011;9945;46.010;8.946;2022-11-20T14:11:02;1.83;;;1.27;;
19595;SDS011;9945;46.010;8.946;2022-11-20T14:13:31;1.20;;;1.20;;
19595;SDS011;9945;46.010;8.946;2022-11-20T14:15:59;0.93;;;0.93;;
19595;SDS011;9945;46.010;8.946;2022-11-20T14:18:26;0.73;;;0.73;;
19595;SDS011;9945;46.010;8.946;2022-11-20T14:20:53;0.70;;;0.70;;
19595;SDS011;9945;46.010;8.946;2022-11-20T14:23:23;1.17;;;0.70;;
19595;SDS011;9945;46.010;8.946;2022-11-20T14:25:52;0.90;;;0.88;;
19595;SDS011;9945;46.010;8.946;2022-11-20T14:28:20;1.30;;;1.23;;
19595;SDS011;9945;46.010;8.946;2022-11-20T14:30:52;1.23;;;1.23;;
19595;SDS011;9945;46.010;8.946;2022-11-20T14:33:21;2.20;;;2.10;;
19595;SDS011;9945;46.010;8.946;2022-11-20T14:35:51;0.70;;;0.70;;
19595;SDS011;9945;46.010;8.946;2022-11-20T14:38:21;2.80;;;2.60;;
19595;SDS011;9945;46.010;8.946;2022-11-20T14:40:51;1.88;;;1.77;;
19595;SDS011;9945;46.010;8.946;2022-11-20T14:43:19;1.02;;;1.00;;
19595;SDS011;9945;46.010;8.946;2022-11-20T14:45:51;0.73;;;0.73;;
19595;SDS011;9945;46.010;8.946;2022-11-20T14:48:26;0.50;;;0.50;;
19595;SDS011;9945;46.010;8.946;2022-11-20T14:50:57;0.93;;;0.70;;
19595;SDS011;9945;46.010;8.946;2022-11-20T14:53:24;1.17;;;1.08;;
19595;SDS011;9945;46.010;8.946;2022-11-20T14:55:55;0.85;;;0.85;;
19595;SDS011;9945;46.010;8.946;2022-11-20T14:58:25;0.90;;;0.90;;
19595;SDS011;9945;46.010;8.946;2022-11-20T15:00:53;0.90;;;0.90;;
19595;SDS011;9945;46.010;8.946;2022-11-20T15:03:23;2.13;;;0.98;;
19595;SDS011;9945;46.010;8.946;2022-11-20T15:05:57;3.45;;;1.02;;
19595;SDS011;9945;46.010;8.946;2022-11-20T15:08:24;1.20;;;0.88;;
19595;SDS011;9945;46.010;8.946;2022-11-20T15:10:51;0.70;;;0.70;;
19595;SDS011;9945;46.010;8.946;2022-11-20T15:13:21;0.80;;;0.80;;
19595;SDS011;9945;46.010;8.946;2022-11-20T15:15:53;0.82;;;0.82;;
19595;SDS011;9945;46.010;8.946;2022-11-20T15:18:23;1.60;;;1.60;;
19595;SDS011;9945;46.010;8.946;2022-11-20T15:20:53;3.03;;;2.15;;
19595;SDS011;9945;46.010;8.946;2022-11-20T15:23:22;2.45;;;2.33;;